Time;durP1;ratioP1;P1;durP2;ratioP2;P2;SDS_P1;SDS_P2;PMS_P1;PMS_P2;Temp;Humidity;BMP_temperature;BMP_pressure;BME280_temperature;BME280_humidity;BME280_pressure;Samples;Min_cycle;Max_cycle;Signal;HPM_P1;HPM_P2
2023/12/16 00:00:44;;;;;;;6.30;0.13;;;8.30;99.90;;;;;;5074933;28;20028;-77
2023/12/16 00:03:12;;;;;;;3.17;0.15;;;8.30;99.90;;;;;;5073931;28;20024;-76
2023/12/16 00:05:39;;;;;;;5.70;0.50;;;8.30;99.90;;;;;;5073355;28;20036;-77
2023/12/16 00:08:04;;;;;;;10.80;0.95;;;8.30;99.90;;;;;;5074886;28;20029;-77
2023/12/16 00:10:30;;;;;;;5.95;0.82;;;8.20;99.90;;;;;;5073191;28;20027;-77
2023/12/16 00:12:55;;;;;;;12.00;0.70;;;8.30;99.90;;;;;;5073511;28;20484;-77
2023/12/16 00:15:21;;;;;;;2.00;0.00;;;8.30;99.90;;;;;;5073320;28;20027;-77
2023/12/16 00:17:46;;;;;;;4.78;0.03;;;8.30;99.90;;;;;;5074550;28;20012;-77
2023/12/16 00:20:12;;;;;;;7.00;0.38;;;8.30;99.90;;;;;;5073323;28;20544;-77
2023/12/16 00:22:38;;;;;;;5.22;0.32;;;8.30;99.90;;;;;;5074490;28;20035;-77
2023/12/16 00:25:06;;;;;;;19.33;0.57;;;8.40;99.90;;;;;;5074498;28;20025;-77
2023/12/16 00:27:32;;;;;;;3.97;0.00;;;8.40;99.90;;;;;;5074414;28;20033;-76
2023/12/16 00:29:57;;;;;;;9.98;0.22;;;8.40;99.90;;;;;;5074203;28;20074;-77
2023/12/16 00:32:23;;;;;;;19.77;1.10;;;8.40;99.90;;;;;;5072971;28;20024;-77
2023/12/16 00:34:48;;;;;;;7.45;0.43;;;8.30;99.90;;;;;;5074229;28;20033;-77
2023/12/16 00:37:14;;;;;;;6.18;0.52;;;8.30;99.90;;;;;;5074296;28;20021;-77
2023/12/16 00:39:39;;;;;;;10.20;1.17;;;8.30;99.90;;;;;;5072679;28;20094;-77
2023/12/16 00:42:05;;;;;;;8.13;0.68;;;8.30;99.90;;;;;;5074303;28;20021;-77
2023/12/16 00:44:31;;;;;;;8.00;0.68;;;8.30;99.90;;;;;;5074039;28;20028;-76
2023/12/16 00:46:57;;;;;;;11.82;0.32;;;8.30;99.90;;;;;;5072810;28;20012;-77
2023/12/16 00:49:23;;;;;;;5.72;0.30;;;8.30;99.90;;;;;;5073658;28;20032;-77
2023/12/16 00:51:49;;;;;;;7.47;0.17;;;8.20;99.90;;;;;;5073839;28;20029;-77
2023/12/16 00:54:14;;;;;;;4.97;0.75;;;8.20;99.90;;;;;;5073976;28;20538;-77
2023/12/16 00:56:40;;;;;;;6.18;0.40;;;8.20;99.90;;;;;;5073945;28;20016;-77
2023/12/16 00:59:05;;;;;;;8.43;0.22;;;8.10;99.90;;;;;;5073715;28;20025;-77
2023/12/16 01:01:31;;;;;;;8.65;0.30;;;8.10;99.90;;;;;;5073339;28;20078;-77
2023/12/16 01:03:57;;;;;;;10.95;1.00;;;8.00;99.90;;;;;;5072547;28;20032;-76
2023/12/16 01:06:22;;;;;;;5.60;0.32;;;8.10;99.90;;;;;;5074385;28;20036;-77
2023/12/16 01:08:48;;;;;;;3.40;0.13;;;8.00;99.90;;;;;;5073996;28;20032;-77
2023/12/16 01:11:13;;;;;;;7.32;0.10;;;7.90;99.90;;;;;;5072370;28;20119;-77
2023/12/16 01:13:39;;;;;;;4.15;0.03;;;7.90;99.90;;;;;;5072766;28;20029;-77
2023/12/16 01:16:05;;;;;;;4.45;0.20;;;7.80;99.90;;;;;;5073701;28;20048;-77
2023/12/16 01:18:30;;;;;;;4.65;0.32;;;7.70;99.90;;;;;;5072295;28;20472;-77
2023/12/16 01:20:56;;;;;;;4.47;0.30;;;7.70;99.90;;;;;;5073540;28;20021;-77
2023/12/16 01:23:21;;;;;;;9.02;0.85;;;7.70;99.90;;;;;;5073576;28;20046;-77
2023/12/16 01:25:47;;;;;;;15.50;1.23;;;7.60;99.90;;;;;;5073533;28;20054;-77
2023/12/16 01:28:13;;;;;;;8.68;0.65;;;7.50;99.90;;;;;;5073527;28;20055;-76
2023/12/16 01:30:38;;;;;;;3.45;0.15;;;7.50;99.90;;;;;;5073276;28;20048;-77
2023/12/16 01:33:04;;;;;;;5.78;0.70;;;7.80;99.90;;;;;;5072183;28;20479;-77
2023/12/16 01:35:29;;;;;;;6.68;0.30;;;7.50;99.90;;;;;;5073497;28;20020;-77
2023/12/16 01:37:55;;;;;;;7.65;0.20;;;7.40;99.90;;;;;;5072240;28;20073;-77
2023/12/16 01:40:20;;;;;;;9.15;0.57;;;7.50;99.90;;;;;;5072270;28;20032;-77
2023/12/16 01:42:46;;;;;;;9.63;0.30;;;7.40;99.90;;;;;;5073461;28;20028;-77
2023/12/16 01:45:15;;;;;;;3.30;0.45;;;7.40;99.90;;;;;;5072096;28;20070;-77
2023/12/16 01:47:41;;;;;;;11.13;0.77;;;7.40;99.90;;;;;;5073289;28;20021;-77
2023/12/16 01:50:07;;;;;;;12.10;0.70;;;7.30;99.90;;;;;;5071823;28;20036;-77
2023/12/16 01:52:33;;;;;;;7.38;1.00;;;7.30;99.90;;;;;;5073827;28;20070;-77
2023/12/16 01:54:59;;;;;;;6.57;0.93;;;;;;;;;;5072093;28;20116;-77
2023/12/16 01:57:25;;;;;;;9.05;0.70;;;7.20;99.90;;;;;;5073458;28;20025;-77
2023/12/16 01:59:51;;;;;;;6.55;0.60;;;7.20;99.90;;;;;;5071769;28;20075;-77
2023/12/16 02:02:18;;;;;;;6.60;1.08;;;7.20;99.90;;;;;;5073120;28;20032;-77
2023/12/16 02:04:44;;;;;;;7.90;0.65;;;7.20;99.90;;;;;;5073363;28;20025;-77
2023/12/16 02:07:09;;;;;;;17.30;0.45;;;7.20;99.90;;;;;;5072890;28;20070;-76
2023/12/16 02:09:35;;;;;;;9.18;0.65;;;7.20;99.90;;;;;;5071662;28;20029;-77
2023/12/16 02:12:01;;;;;;;6.70;0.32;;;7.10;99.90;;;;;;5073081;28;20031;-77
2023/12/16 02:14:26;;;;;;;10.90;0.60;;;7.10;99.90;;;;;;5072185;28;20020;-77
2023/12/16 02:16:52;;;;;;;9.25;0.63;;;7.00;99.90;;;;;;5073454;28;20017;-77
2023/12/16 02:19:27;;;;;;;6.72;0.40;;;7.00;99.90;;;;;;5071695;28;20074;-77
2023/12/16 02:21:54;;;;;;;6.07;0.57;;;7.00;99.90;;;;;;5072167;28;20097;-77
2023/12/16 02:24:20;;;;;;;6.22;0.93;;;7.00;99.90;;;;;;5074873;28;20099;-77
2023/12/16 02:26:45;;;;;;;9.43;1.08;;;7.00;99.90;;;;;;5075300;28;20487;-77
2023/12/16 02:29:11;;;;;;;9.77;0.85;;;6.90;99.90;;;;;;5076722;28;20021;-76
2023/12/16 02:31:36;;;;;;;3.55;0.50;;;6.90;99.90;;;;;;5077060;28;20021;-77
2023/12/16 02:34:02;;;;;;;11.93;0.90;;;6.90;99.90;;;;;;5076491;28;20020;-77
2023/12/16 02:36:28;;;;;;;8.85;1.23;;;7.00;99.90;;;;;;5076491;28;20016;-77
2023/12/16 02:38:53;;;;;;;9.18;1.15;;;7.00;99.90;;;;;;5075239;28;20032;-77
2023/12/16 02:41:21;;;;;;;15.00;1.40;;;7.00;99.90;;;;;;5074889;28;20511;-77
2023/12/16 02:43:47;;;;;;;10.35;2.22;;;7.10;99.90;;;;;;5075056;28;20017;-77
2023/12/16 02:46:12;;;;;;;6.40;1.23;;;7.10;99.90;;;;;;5076273;28;20082;-77
2023/12/16 02:48:38;;;;;;;6.75;0.68;;;7.10;99.90;;;;;;5076165;28;20025;-77
2023/12/16 02:51:04;;;;;;;7.28;1.92;;;7.10;99.90;;;;;;5076178;28;20042;-77
2023/12/16 02:53:30;;;;;;;7.10;0.50;;;7.10;99.90;;;;;;5074810;28;20145;-77
2023/12/16 02:55:55;;;;;;;8.18;0.85;;;8.80;99.90;;;;;;5076255;28;20040;-77
2023/12/16 02:58:21;;;;;;;7.30;0.47;;;7.10;99.90;;;;;;5076206;28;20473;-77
2023/12/16 03:00:46;;;;;;;9.35;1.08;;;7.00;99.90;;;;;;5076431;28;20035;-77
2023/12/16 03:03:12;;;;;;;10.15;1.73;;;7.10;99.90;;;;;;5074808;28;20021;-77
2023/12/16 03:05:37;;;;;;;8.25;2.10;;;7.00;99.90;;;;;;5075972;28;20021;-76
2023/12/16 03:08:03;;;;;;;9.38;0.95;;;7.00;99.90;;;;;;5075857;28;20032;-77
2023/12/16 03:10:29;;;;;;;9.55;1.38;;;7.00;99.90;;;;;;5075791;28;20035;-77
2023/12/16 03:12:55;;;;;;;6.60;0.75;;;7.10;99.90;;;;;;5074632;28;20062;-77
2023/12/16 03:15:21;;;;;;;14.10;1.10;;;7.00;99.90;;;;;;5075945;28;20024;-77
2023/12/16 03:17:47;;;;;;;11.40;0.63;;;7.00;99.90;;;;;;5076427;28;20031;-77
2023/12/16 03:20:12;;;;;;;9.18;0.88;;;7.10;99.90;;;;;;5076139;28;20031;-77
2023/12/16 03:22:38;;;;;;;15.70;1.35;;;7.10;99.90;;;;;;5075670;28;20032;-77
2023/12/16 03:25:04;;;;;;;8.20;0.98;;;7.00;99.90;;;;;;5076697;28;20021;-77
2023/12/16 03:27:30;;;;;;;15.90;1.80;;;7.00;99.90;;;;;;5079874;28;20025;-77
2023/12/16 03:29:55;;;;;;;7.22;1.40;;;7.10;99.90;;;;;;5077916;28;20375;-77
2023/12/16 03:32:21;;;;;;;13.48;2.28;;;7.10;99.90;;;;;;5078160;28;20476;-77
2023/12/16 03:34:46;;;;;;;9.02;1.60;;;7.10;99.90;;;;;;5078221;28;20025;-77
2023/12/16 03:37:14;;;;;;;9.00;1.85;;;7.00;99.90;;;;;;5078938;28;20024;-77
2023/12/16 03:39:40;;;;;;;14.13;1.25;;;7.00;99.90;;;;;;5078463;28;20021;-77
2023/12/16 03:42:06;;;;;;;8.05;1.45;;;7.00;99.90;;;;;;5079861;28;20111;-77
2023/12/16 03:44:32;;;;;;;10.00;1.42;;;7.00;99.90;;;;;;5077968;28;20494;-78
2023/12/16 03:46:58;;;;;;;9.35;1.25;;;7.00;99.90;;;;;;5077316;28;20098;-77
2023/12/16 03:49:23;;;;;;;9.85;1.08;;;7.00;99.90;;;;;;5077101;28;20024;-78
2023/12/16 03:51:49;;;;;;;9.50;1.23;;;7.00;99.90;;;;;;5074088;28;20069;-78
2023/12/16 03:54:15;;;;;;;10.88;2.25;;;7.00;99.90;;;;;;5075198;28;20103;-77
2023/12/16 03:56:40;;;;;;;12.43;1.42;;;8.20;99.90;;;;;;5078355;28;20055;-78
2023/12/16 03:59:06;;;;;;;14.35;1.38;;;7.00;99.90;;;;;;5074155;28;20016;-76
2023/12/16 04:01:31;;;;;;;10.32;0.60;;;7.00;99.90;;;;;;5076131;28;20127;-76
2023/12/16 04:03:57;;;;;;;13.00;1.92;;;6.90;99.90;;;;;;5074592;28;20074;-76
2023/12/16 04:06:22;;;;;;;5.97;1.13;;;7.00;99.90;;;;;;5074067;28;20021;-76
2023/12/16 04:08:48;;;;;;;10.05;1.02;;;6.90;99.90;;;;;;5074860;28;20119;-76
2023/12/16 04:11:13;;;;;;;12.38;0.98;;;7.00;99.90;;;;;;5075511;28;20021;-77
2023/12/16 04:13:39;;;;;;;9.30;1.30;;;6.90;99.90;;;;;;5076061;28;20044;-77
2023/12/16 04:16:05;;;;;;;15.57;2.13;;;6.90;99.90;;;;;;5079016;28;20017;-77
2023/12/16 04:18:32;;;;;;;9.85;2.20;;;6.80;99.90;;;;;;5079644;28;20036;-77
2023/12/16 04:20:58;;;;;;;13.80;1.25;;;6.80;99.90;;;;;;5077742;28;20028;-77
2023/12/16 04:23:24;;;;;;;9.57;1.52;;;6.80;99.90;;;;;;5079092;28;20032;-77
2023/12/16 04:25:49;;;;;;;10.40;1.17;;;6.80;99.90;;;;;;5079004;28;20077;-77
2023/12/16 04:28:15;;;;;;;10.55;1.30;;;6.80;99.90;;;;;;5078756;28;20035;-77
2023/12/16 04:30:40;;;;;;;10.35;2.25;;;6.80;99.90;;;;;;5078491;28;20032;-78
2023/12/16 04:33:06;;;;;;;13.32;1.63;;;6.70;99.90;;;;;;5075812;28;20017;-77
2023/12/16 04:35:31;;;;;;;10.80;1.98;;;6.70;99.90;;;;;;5073621;28;20043;-76
2023/12/16 04:37:57;;;;;;;16.83;1.73;;;6.70;99.90;;;;;;5073628;28;20024;-78
2023/12/16 04:40:23;;;;;;;15.73;1.88;;;6.70;99.90;;;;;;5077107;28;20032;-77
2023/12/16 04:42:48;;;;;;;9.80;1.23;;;6.60;99.90;;;;;;5078547;28;20028;-77
2023/12/16 04:45:14;;;;;;;12.68;1.73;;;6.70;99.90;;;;;;5078345;28;20012;-77
2023/12/16 04:47:40;;;;;;;17.20;2.63;;;6.70;99.90;;;;;;5076509;28;20021;-77
2023/12/16 04:50:06;;;;;;;11.70;1.83;;;6.60;99.90;;;;;;5076906;28;20085;-78
2023/12/16 04:52:31;;;;;;;13.65;1.88;;;6.60;99.90;;;;;;5078673;28;20020;-77
2023/12/16 04:54:57;;;;;;;12.57;1.73;;;6.60;99.90;;;;;;5076758;28;20028;-77
2023/12/16 04:57:22;;;;;;;10.77;1.33;;;6.50;99.90;;;;;;5078099;28;20031;-77
2023/12/16 04:59:48;;;;;;;10.63;1.20;;;6.50;99.90;;;;;;5078542;28;20032;-77
2023/12/16 05:02:13;;;;;;;17.20;1.67;;;6.50;99.90;;;;;;5076546;28;20043;-77
2023/12/16 05:04:39;;;;;;;9.13;1.23;;;6.60;99.90;;;;;;5078608;28;20357;-77
2023/12/16 05:07:04;;;;;;;8.65;1.10;;;6.60;99.90;;;;;;5077833;28;20039;-77
2023/12/16 05:09:30;;;;;;;14.63;1.65;;;6.60;99.90;;;;;;5078152;28;20040;-77
2023/12/16 05:11:56;;;;;;;9.20;1.33;;;6.60;99.90;;;;;;5076365;28;20013;-77
2023/12/16 05:14:22;;;;;;;22.55;4.40;;;6.70;99.90;;;;;;5078299;28;20028;-77
2023/12/16 05:16:48;;;;;;;18.52;1.52;;;6.70;99.90;;;;;;5078542;28;20024;-77
2023/12/16 05:19:14;;;;;;;9.63;1.40;;;6.60;99.90;;;;;;5076214;28;20103;-77
2023/12/16 05:21:39;;;;;;;15.45;0.95;;;6.60;99.90;;;;;;5076710;28;20028;-77
2023/12/16 05:24:05;;;;;;;12.23;1.85;;;6.60;99.90;;;;;;5076544;28;20047;-77
2023/12/16 05:26:31;;;;;;;15.30;1.30;;;6.60;99.90;;;;;;5078197;28;20024;-78
2023/12/16 05:28:57;;;;;;;12.13;1.25;;;6.60;99.90;;;;;;5077815;28;20365;-77
2023/12/16 05:31:22;;;;;;;20.67;1.95;;;6.60;99.90;;;;;;5075987;28;20111;-77
2023/12/16 05:33:48;;;;;;;16.38;1.50;;;6.40;99.90;;;;;;5077249;28;20020;-77
2023/12/16 05:36:14;;;;;;;9.20;1.27;;;6.60;99.90;;;;;;5076414;28;20454;-78
2023/12/16 05:38:40;;;;;;;15.85;1.95;;;6.60;99.90;;;;;;5075702;28;20044;-77
2023/12/16 05:41:06;;;;;;;12.30;1.40;;;6.50;99.90;;;;;;5077993;28;20376;-77
2023/12/16 05:43:32;;;;;;;20.48;2.35;;;6.50;99.90;;;;;;5076124;28;20074;-77
2023/12/16 05:45:57;;;;;;;14.07;1.35;;;6.50;99.90;;;;;;5076965;28;20020;-77
2023/12/16 05:48:23;;;;;;;14.90;1.23;;;6.60;99.90;;;;;;5074981;28;20067;-78
2023/12/16 05:50:48;;;;;;;10.82;1.48;;;6.60;99.90;;;;;;5072952;28;20036;-78
2023/12/16 05:53:14;;;;;;;9.27;0.88;;;6.60;99.90;;;;;;5077391;28;20384;-78
2023/12/16 05:55:40;;;;;;;8.98;1.13;;;6.60;99.90;;;;;;5077823;28;20021;-77
2023/12/16 05:58:06;;;;;;;17.92;1.65;;;6.70;99.90;;;;;;5073278;28;20028;-77
2023/12/16 06:00:31;;;;;;;19.60;1.48;;;6.70;99.90;;;;;;5080407;28;20021;-78
2023/12/16 06:02:57;;;;;;;11.80;1.55;;;6.70;99.90;;;;;;5080388;28;20027;-77
2023/12/16 06:05:23;;;;;;;8.27;1.13;;;6.60;99.90;;;;;;5078030;28;20032;-77
2023/12/16 06:07:48;;;;;;;13.20;0.80;;;6.60;99.90;;;;;;5078403;28;20038;-78
2023/12/16 06:10:14;;;;;;;12.20;1.27;;;6.60;99.90;;;;;;5079706;28;20024;-76
2023/12/16 06:12:40;;;;;;;11.10;1.20;;;6.60;99.90;;;;;;5076993;28;20495;-76
2023/12/16 06:15:06;;;;;;;9.05;0.80;;;6.70;99.90;;;;;;5076229;28;20560;-77
2023/12/16 06:17:32;;;;;;;10.93;1.10;;;6.70;99.90;;;;;;5077245;28;20087;-77
2023/12/16 06:19:57;;;;;;;8.20;1.20;;;6.80;99.90;;;;;;5080515;28;20032;-77
2023/12/16 06:22:24;;;;;;;15.23;1.60;;;6.80;99.90;;;;;;5079962;28;20039;-76
2023/12/16 06:24:49;;;;;;;18.63;1.65;;;6.80;99.90;;;;;;5076932;28;20492;-77
2023/12/16 06:27:15;;;;;;;10.43;0.63;;;6.80;99.90;;;;;;5078352;28;20032;-78
2023/12/16 06:29:40;;;;;;;10.15;1.52;;;9.00;99.90;;;;;;5080594;28;20035;-77
2023/12/16 06:32:06;;;;;;;13.75;1.40;;;6.80;99.90;;;;;;5080013;28;20020;-77
2023/12/16 06:34:32;;;;;;;12.43;1.08;;;6.80;99.90;;;;;;5079609;28;20051;-78
2023/12/16 06:36:58;;;;;;;17.63;1.92;;;6.80;99.90;;;;;;5078459;28;20421;-77
2023/12/16 06:39:24;;;;;;;16.10;2.08;;;6.70;99.90;;;;;;5080545;28;20017;-77
2023/12/16 06:41:50;;;;;;;27.17;2.05;;;6.70;99.90;;;;;;5076690;28;20475;-77
2023/12/16 06:44:15;;;;;;;13.98;1.75;;;6.70;99.90;;;;;;5077687;28;20032;-77
2023/12/16 06:46:41;;;;;;;11.90;1.60;;;6.80;99.90;;;;;;5075459;28;20025;-78
2023/12/16 06:49:07;;;;;;;13.85;1.25;;;6.70;99.90;;;;;;5077404;28;20115;-78
2023/12/16 06:51:32;;;;;;;13.57;0.88;;;6.70;99.90;;;;;;5077156;28;20484;-77
2023/12/16 06:53:58;;;;;;;9.10;0.80;;;6.60;99.90;;;;;;5077244;28;20069;-78
2023/12/16 06:56:23;;;;;;;8.88;1.83;;;6.60;99.90;;;;;;5076747;28;20078;-77
2023/12/16 06:58:49;;;;;;;13.13;1.15;;;6.60;99.90;;;;;;5075602;28;20029;-77
2023/12/16 07:01:15;;;;;;;12.25;0.55;;;6.60;99.90;;;;;;5079084;28;20024;-77
2023/12/16 07:03:41;;;;;;;10.23;1.00;;;6.60;99.90;;;;;;5080357;28;20051;-77
2023/12/16 07:06:07;;;;;;;14.32;0.90;;;6.50;99.90;;;;;;5079248;28;20349;-77
2023/12/16 07:08:35;;;;;;;12.88;1.40;;;6.60;99.90;;;;;;5078887;28;20034;-77
2023/12/16 07:11:02;;;;;;;18.23;1.42;;;6.50;99.90;;;;;;5078179;28;20032;-77
2023/12/16 07:13:27;;;;;;;17.80;1.88;;;6.60;99.90;;;;;;5079198;28;20430;-77
2023/12/16 07:15:53;;;;;;;9.90;1.02;;;6.60;99.90;;;;;;5081636;28;20017;-78
2023/12/16 07:18:21;;;;;;;15.25;1.88;;;6.60;99.90;;;;;;5080877;28;20050;-78
2023/12/16 07:20:47;;;;;;;12.75;0.90;;;7.60;99.90;;;;;;5081618;28;20035;-78
2023/12/16 07:23:13;;;;;;;11.63;1.23;;;;;;;;;;5082170;28;20492;-78
2023/12/16 07:25:40;;;;;;;10.00;0.45;;;6.50;99.90;;;;;;5080947;28;20027;-78
2023/12/16 07:28:05;;;;;;;15.57;1.30;;;6.60;99.90;;;;;;5081586;28;20430;-78
2023/12/16 07:30:32;;;;;;;11.25;1.00;;;6.60;99.90;;;;;;5083121;28;20029;-77
2023/12/16 07:32:57;;;;;;;13.65;1.15;;;6.60;99.90;;;;;;5081028;28;20419;-77
2023/12/16 07:35:23;;;;;;;11.18;1.08;;;6.60;99.90;;;;;;5081658;28;20020;-78
2023/12/16 07:37:49;;;;;;;10.85;1.52;;;6.60;99.90;;;;;;5081530;28;20013;-78
2023/12/16 07:40:15;;;;;;;21.42;2.40;;;6.50;99.90;;;;;;5081245;28;20097;-78
2023/12/16 07:42:41;;;;;;;7.68;1.05;;;6.60;99.90;;;;;;5080501;28;20543;-77
2023/12/16 07:45:08;;;;;;;7.88;0.80;;;6.40;99.90;;;;;;5081752;28;20047;-78
2023/12/16 07:47:33;;;;;;;18.58;1.63;;;6.70;99.90;;;;;;5080281;28;20032;-78
2023/12/16 07:49:59;;;;;;;12.30;1.95;;;6.80;99.90;;;;;;5079984;28;20051;-77
2023/12/16 07:52:25;;;;;;;18.02;1.20;;;6.70;99.90;;;;;;5080811;28;20426;-78
2023/12/16 07:54:51;;;;;;;11.77;2.10;;;6.70;99.90;;;;;;5079768;28;20048;-77
2023/12/16 07:57:16;;;;;;;17.42;1.35;;;6.60;99.90;;;;;;5079991;28;20016;-78
2023/12/16 07:59:43;;;;;;;15.82;2.38;;;6.70;99.90;;;;;;5080412;28;20017;-78
2023/12/16 08:02:10;;;;;;;6.55;1.00;;;6.60;99.90;;;;;;5080011;28;20017;-77
2023/12/16 08:04:37;;;;;;;15.07;1.45;;;7.10;99.90;;;;;;5079595;28;20024;-77
2023/12/16 08:07:03;;;;;;;16.08;2.45;;;6.70;99.90;;;;;;5079366;28;20112;-77
2023/12/16 08:09:29;;;;;;;12.60;1.13;;;6.60;99.90;;;;;;5079744;28;20091;-77
2023/12/16 08:11:58;;;;;;;9.93;1.02;;;6.70;99.90;;;;;;5079711;28;20016;-77
2023/12/16 08:14:30;;;;;;;14.10;2.00;;;6.80;99.90;;;;;;5078859;28;20040;-78
2023/12/16 08:16:56;;;;;;;12.18;1.27;;;6.90;99.90;;;;;;5081592;28;20021;-78
2023/12/16 08:19:21;;;;;;;14.50;1.63;;;10.40;99.90;;;;;;5080580;28;20087;-78
2023/12/16 08:21:47;;;;;;;9.02;1.27;;;6.90;99.90;;;;;;5079882;28;20029;-78
2023/12/16 08:24:14;;;;;;;9.98;0.85;;;6.90;99.90;;;;;;5081780;28;20032;-77
2023/12/16 08:26:39;;;;;;;10.50;0.75;;;7.00;99.90;;;;;;5080753;28;20024;-78
2023/12/16 08:29:05;;;;;;;9.95;1.33;;;7.10;99.90;;;;;;5080828;28;20074;-78
2023/12/16 08:31:31;;;;;;;20.88;1.95;;;7.00;99.90;;;;;;5079554;28;20042;-78
2023/12/16 08:33:56;;;;;;;13.10;1.27;;;7.10;99.90;;;;;;5080940;28;20021;-78
2023/12/16 08:36:22;;;;;;;11.27;1.17;;;7.10;99.90;;;;;;5080823;28;20016;-78
2023/12/16 08:38:48;;;;;;;14.57;1.20;;;7.20;99.90;;;;;;5080973;28;20023;-77
2023/12/16 08:41:14;;;;;;;8.65;1.08;;;7.20;99.90;;;;;;5080762;28;20025;-78
2023/12/16 08:43:41;;;;;;;13.52;1.33;;;7.20;99.90;;;;;;5079531;28;20032;-78
2023/12/16 08:46:07;;;;;;;11.98;0.95;;;7.30;99.90;;;;;;5079472;28;20024;-77
2023/12/16 08:48:34;;;;;;;13.68;1.42;;;7.30;99.90;;;;;;5078862;28;20021;-78
2023/12/16 08:50:59;;;;;;;9.88;1.30;;;7.40;99.90;;;;;;5079003;28;20024;-78
2023/12/16 08:53:25;;;;;;;8.35;0.73;;;7.50;99.90;;;;;;5077479;28;20027;-78
2023/12/16 08:55:51;;;;;;;9.52;2.00;;;7.50;99.90;;;;;;5078972;28;20013;-78
2023/12/16 08:58:18;;;;;;;15.30;2.20;;;7.50;99.90;;;;;;5078764;28;20025;-77
2023/12/16 09:00:43;;;;;;;11.23;0.98;;;7.50;99.90;;;;;;5078653;28;20029;-78
2023/12/16 09:03:09;;;;;;;7.75;0.98;;;7.50;99.90;;;;;;5076771;28;20449;-78
2023/12/16 09:05:36;;;;;;;10.70;1.70;;;7.50;99.90;;;;;;5077550;28;20028;-76
2023/12/16 09:08:02;;;;;;;13.90;1.55;;;7.50;99.90;;;;;;5076621;28;20510;-77
2023/12/16 09:10:28;;;;;;;9.02;1.08;;;7.60;99.90;;;;;;5076749;28;20078;-78
2023/12/16 09:12:53;;;;;;;9.88;1.05;;;7.50;99.90;;;;;;5079962;28;20393;-78
2023/12/16 09:15:19;;;;;;;11.10;1.77;;;7.50;99.90;;;;;;5074001;28;20020;-76
2023/12/16 09:17:47;;;;;;;17.88;2.55;;;7.60;99.90;;;;;;5076142;28;20448;-78
2023/12/16 09:20:13;;;;;;;10.82;1.77;;;7.60;99.90;;;;;;5075919;28;20024;-76
2023/12/16 09:22:38;;;;;;;12.10;2.00;;;7.70;99.90;;;;;;5075202;28;20024;-78
2023/12/16 09:25:05;;;;;;;13.95;1.48;;;7.70;99.90;;;;;;5074957;28;20103;-78
2023/12/16 09:27:31;;;;;;;17.65;2.03;;;7.80;99.90;;;;;;5076535;28;20103;-77
2023/12/16 09:29:56;;;;;;;14.60;2.25;;;7.80;99.90;;;;;;5075430;28;20059;-79
2023/12/16 09:32:22;;;;;;;15.65;1.75;;;7.90;99.90;;;;;;5074530;28;20020;-77
2023/12/16 09:34:48;;;;;;;17.80;2.40;;;7.90;99.90;;;;;;5073680;28;20075;-78
2023/12/16 09:37:14;;;;;;;11.95;1.77;;;7.90;99.90;;;;;;5075307;28;20015;-78
2023/12/16 09:39:40;;;;;;;20.77;2.78;;;8.00;99.90;;;;;;5075636;28;20036;-78
2023/12/16 09:42:06;;;;;;;13.95;1.70;;;7.90;99.90;;;;;;5075631;28;20463;-76
2023/12/16 09:44:36;;;;;;;13.05;1.58;;;8.60;99.90;;;;;;5075136;28;20059;-78
2023/12/16 09:47:03;;;;;;;14.68;1.60;;;8.10;99.90;;;;;;5075085;28;20051;-77
2023/12/16 09:49:30;;;;;;;17.77;2.25;;;8.10;99.90;;;;;;5075331;28;20107;-78
2023/12/16 09:51:55;;;;;;;13.25;2.58;;;8.10;99.90;;;;;;5079178;28;20420;-78
2023/12/16 09:54:21;;;;;;;16.40;2.53;;;8.10;99.90;;;;;;5079610;28;20079;-77
2023/12/16 09:56:49;;;;;;;20.55;2.50;;;8.20;99.90;;;;;;5079469;28;20020;-78
2023/12/16 09:59:16;;;;;;;10.88;2.33;;;8.30;99.90;;;;;;5079666;28;20028;-78
2023/12/16 10:01:52;;;;;;;14.20;2.97;;;8.40;99.90;;;;;;5079640;28;20031;-78
2023/12/16 10:04:18;;;;;;;17.80;2.22;;;8.30;99.90;;;;;;5078770;28;20055;-78
2023/12/16 10:06:44;;;;;;;21.42;2.38;;;8.50;99.90;;;;;;5079744;28;20500;-77
2023/12/16 10:09:09;;;;;;;16.13;3.25;;;8.60;99.90;;;;;;5079408;28;20060;-78
2023/12/16 10:11:39;;;;;;;17.27;2.95;;;8.60;99.90;;;;;;5079246;28;20025;-77
2023/12/16 10:14:05;;;;;;;17.40;2.70;;;8.60;99.90;;;;;;5077906;28;20020;-78
2023/12/16 10:16:31;;;;;;;16.15;2.95;;;8.70;99.90;;;;;;5077993;28;20020;-78
2023/12/16 10:18:57;;;;;;;16.80;2.03;;;8.70;99.90;;;;;;5078235;28;20111;-78
2023/12/16 10:21:28;;;;;;;15.75;1.63;;;8.80;99.90;;;;;;5075989;28;20028;-77
2023/12/16 10:23:55;;;;;;;16.17;3.13;;;8.80;99.90;;;;;;5072965;28;20032;-77
2023/12/16 10:26:21;;;;;;;16.67;2.72;;;8.80;99.90;;;;;;5073106;28;20016;-77
2023/12/16 10:28:48;;;;;;;11.65;3.20;;;8.80;99.90;;;;;;5071544;28;20434;-76
2023/12/16 10:31:15;;;;;;;22.27;3.90;;;8.90;99.90;;;;;;5071588;28;20021;-76
2023/12/16 10:33:41;;;;;;;12.82;2.50;;;8.90;99.90;;;;;;5072936;28;20017;-77
2023/12/16 10:36:08;;;;;;;19.02;3.42;;;8.90;99.90;;;;;;5071559;28;20537;-77
2023/12/16 10:38:34;;;;;;;14.57;4.20;;;8.90;99.90;;;;;;5072822;28;20092;-77
2023/12/16 10:40:59;;;;;;;17.35;3.85;;;8.90;99.90;;;;;;5071414;28;20064;-76
2023/12/16 10:43:25;;;;;;;28.38;3.65;;;8.90;99.90;;;;;;5073172;28;20455;-77
2023/12/16 10:45:51;;;;;;;22.83;5.50;;;9.00;99.90;;;;;;5074171;28;20025;-76
2023/12/16 10:48:21;;;;;;;17.80;5.30;;;8.90;99.90;;;;;;5074806;28;20066;-76
2023/12/16 10:50:48;;;;;;;27.60;5.70;;;8.90;99.90;;;;;;5076343;28;20028;-76
2023/12/16 10:53:32;;;;;;;19.77;5.60;;;8.90;99.90;;;;;;5076193;28;20108;-76
2023/12/16 10:56:02;;;;;;;21.27;5.28;;;8.90;99.90;;;;;;5076404;28;20021;-77
2023/12/16 10:58:30;;;;;;;20.60;6.03;;;9.00;99.90;;;;;;5075888;28;20103;-76
2023/12/16 11:01:14;;;;;;;27.75;8.57;;;8.90;99.90;;;;;;5075944;28;20031;-77
2023/12/16 11:03:50;;;;;;;23.33;7.85;;;9.00;99.90;;;;;;5076097;28;20136;-77
2023/12/16 11:06:23;;;;;;;17.38;7.38;;;9.00;99.90;;;;;;5075891;28;20501;-77
2023/12/16 11:08:51;;;;;;;24.30;8.32;;;9.00;99.90;;;;;;5075611;28;20037;-77
2023/12/16 11:11:21;;;;;;;26.98;6.00;;;9.00;99.90;;;;;;5075190;28;20083;-77
2023/12/16 11:13:48;;;;;;;24.60;5.88;;;8.80;99.90;;;;;;5075921;28;20027;-76
2023/12/16 11:16:23;;;;;;;22.77;6.30;;;9.00;99.90;;;;;;5075836;28;20012;-76
2023/12/16 11:18:49;;;;;;;17.75;6.05;;;9.70;99.90;;;;;;5074574;28;20059;-77
2023/12/16 11:21:18;;;;;;;23.60;6.57;;;9.00;99.90;;;;;;5074379;28;20483;-76
2023/12/16 11:23:45;;;;;;;23.67;6.43;;;8.90;99.90;;;;;;5076103;28;20167;-77
2023/12/16 11:26:11;;;;;;;22.70;4.97;;;8.90;99.90;;;;;;5075503;28;20020;-76
2023/12/16 11:28:37;;;;;;;19.00;4.97;;;8.90;99.90;;;;;;5075916;28;20043;-77
2023/12/16 11:31:03;;;;;;;23.90;5.13;;;8.90;99.90;;;;;;5076207;28;20099;-76
2023/12/16 11:33:48;;;;;;;24.20;6.57;;;8.90;99.90;;;;;;5075323;28;20546;-77
2023/12/16 11:36:14;;;;;;;24.48;6.13;;;8.90;99.90;;;;;;5074201;28;20476;-76
2023/12/16 11:38:46;;;;;;;19.85;5.93;;;8.90;99.90;;;;;;5074272;28;20051;-77
2023/12/16 11:41:37;;;;;;;15.50;6.28;;;8.90;99.90;;;;;;5075635;28;20086;-76
2023/12/16 11:44:03;;;;;;;22.95;7.45;;;8.90;99.90;;;;;;5075238;28;20045;-77
2023/12/16 11:46:35;;;;;;;21.00;7.20;;;8.90;99.90;;;;;;5075156;28;20538;-77
2023/12/16 11:49:05;;;;;;;20.00;6.45;;;9.00;99.90;;;;;;5075377;28;20028;-77
2023/12/16 11:51:34;;;;;;;14.10;5.20;;;8.90;99.90;;;;;;5075638;28;20017;-77
2023/12/16 11:54:01;;;;;;;19.92;6.82;;;9.00;99.90;;;;;;5075620;28;20020;-77
2023/12/16 11:56:27;;;;;;;12.88;5.38;;;9.00;99.90;;;;;;5073083;28;20103;-77
2023/12/16 11:59:02;;;;;;;16.80;5.38;;;8.90;99.90;;;;;;5074907;28;20044;-77
2023/12/16 12:01:31;;;;;;;12.50;4.25;;;8.90;99.90;;;;;;5073616;28;20479;-77
2023/12/16 12:03:57;;;;;;;16.58;5.00;;;9.00;99.90;;;;;;5074722;28;20024;-77
2023/12/16 12:06:24;;;;;;;10.57;4.40;;;8.90;99.90;;;;;;5074718;28;20476;-76
2023/12/16 12:08:49;;;;;;;14.57;3.97;;;9.00;99.90;;;;;;5074695;28;20040;-77
2023/12/16 12:11:16;;;;;;;8.80;3.00;;;9.00;99.90;;;;;;5074553;28;20027;-76
2023/12/16 12:13:52;;;;;;;9.85;3.58;;;9.10;99.90;;;;;;5074892;28;20077;-77
2023/12/16 12:16:18;;;;;;;13.82;3.45;;;9.00;99.90;;;;;;5075135;28;20067;-76
2023/12/16 12:18:44;;;;;;;11.40;4.15;;;9.00;99.90;;;;;;5074684;28;20055;-77
2023/12/16 12:21:10;;;;;;;9.98;3.58;;;9.00;99.90;;;;;;5074684;28;20028;-77
2023/12/16 12:23:42;;;;;;;9.63;2.97;;;9.00;99.90;;;;;;5074520;28;20036;-77
2023/12/16 12:26:08;;;;;;;15.55;3.88;;;9.50;99.90;;;;;;5073138;28;20032;-77
2023/12/16 12:28:33;;;;;;;10.32;3.47;;;9.00;99.90;;;;;;5074511;28;20020;-76
2023/12/16 12:31:04;;;;;;;10.60;2.95;;;9.10;99.90;;;;;;5074730;28;20028;-77
2023/12/16 12:33:33;;;;;;;9.07;3.65;;;9.00;99.90;;;;;;5074215;28;20047;-77
2023/12/16 12:35:59;;;;;;;6.50;2.58;;;9.10;99.90;;;;;;5072824;28;20016;-77
2023/12/16 12:38:27;;;;;;;6.03;2.13;;;9.10;99.90;;;;;;5074144;28;20094;-78
2023/12/16 12:40:57;;;;;;;3.42;1.27;;;9.10;99.90;;;;;;5073923;28;20032;-77
2023/12/16 12:43:30;;;;;;;6.28;2.47;;;9.10;99.90;;;;;;5072805;28;20024;-77
2023/12/16 12:46:10;;;;;;;7.07;1.83;;;9.10;99.90;;;;;;5074039;28;20028;-77